createdAt,value
2023-02-11T00:00:19.480Z,102992.44
2023-02-11T00:02:47.892Z,102995.81
2023-02-11T00:05:15.353Z,103000.06
2023-02-11T00:07:41.907Z,103001.81
2023-02-11T00:10:08.974Z,102993.97
2023-02-11T00:12:36.773Z,103001.72
2023-02-11T00:15:03.974Z,103009.38
2023-02-11T00:17:30.672Z,103000.72
2023-02-11T00:19:57.363Z,102996.50
2023-02-11T00:22:23.947Z,102998.97
2023-02-11T00:24:50.640Z,102996.28
2023-02-11T00:27:17.415Z,103003.13
2023-02-11T00:29:43.974Z,103000.53
2023-02-11T00:32:11.029Z,103005.59
2023-02-11T00:34:38.321Z,103004.81
2023-02-11T00:37:05.650Z,103009.03
2023-02-11T00:39:32.636Z,103007.28
2023-02-11T00:41:59.167Z,103005.53
2023-02-11T00:44:25.742Z,103010.69
2023-02-11T00:46:52.415Z,103027.75
2023-02-11T00:49:19.230Z,103031.97
2023-02-11T00:51:45.917Z,103027.75
2023-02-11T00:54:12.674Z,103018.19
2023-02-11T00:56:39.238Z,103014.75
2023-02-11T00:59:05.806Z,103012.91
2023-02-11T01:01:32.477Z,102991.44
2023-02-11T01:03:59.185Z,102985.38
2023-02-11T01:06:25.726Z,102981.06
2023-02-11T01:08:52.395Z,102987.97
2023-02-11T01:11:21.520Z,102982.81
2023-02-11T01:13:49.048Z,102987.03
2023-02-11T01:16:16.643Z,102986.22
2023-02-11T01:18:44.538Z,102994.75
2023-02-11T01:21:11.503Z,102994.75
2023-02-11T01:23:38.190Z,102986.13
2023-02-11T01:26:05.649Z,102991.28
2023-02-11T01:28:32.927Z,102988.69
2023-02-11T01:31:01.005Z,102986.97
2023-02-11T01:33:27.829Z,102995.59
2023-02-11T01:35:54.413Z,102998.91
2023-02-11T01:38:26.535Z,102994.59
2023-02-11T01:40:57.416Z,102989.44
2023-02-11T01:43:25.753Z,102998.84
2023-02-11T01:46:15.923Z,102998.00
2023-02-11T01:48:47.562Z,102993.59
2023-02-11T01:51:18.927Z,102986.75
2023-02-11T01:54:07.908Z,102974.78
2023-02-11T01:56:59.698Z,102961.06
2023-02-11T01:59:34.777Z,102951.56
2023-02-11T02:02:10.753Z,102957.63
2023-02-11T02:04:44.351Z,102957.56
2023-02-11T02:07:39.540Z,102957.63
2023-02-11T02:10:14.187Z,102961.91
2023-02-11T02:12:40.824Z,102957.63
2023-02-11T02:15:30.329Z,102956.75
2023-02-11T02:18:24.720Z,102940.31
2023-02-11T02:21:00.612Z,102952.41
2023-02-11T02:23:49.267Z,102952.41
2023-02-11T02:26:31.077Z,102947.31
2023-02-11T02:29:31.161Z,102946.41
2023-02-11T02:32:15.946Z,102943.00
2023-02-11T02:34:52.519Z,102942.16
2023-02-11T02:37:32.617Z,102950.75
2023-02-11T02:40:03.675Z,102946.53
2023-02-11T02:42:32.191Z,102943.94
2023-02-11T02:44:58.816Z,102938.78
2023-02-11T02:47:25.532Z,102943.09
2023-02-11T02:49:52.154Z,102934.41
2023-02-11T02:52:48.964Z,102935.25
2023-02-11T02:55:41.198Z,102931.84
2023-02-11T02:58:16.695Z,102925.88
2023-02-11T03:00:46.205Z,102925.03
2023-02-11T03:03:24.601Z,102931.94
2023-02-11T03:06:03.169Z,102928.47
2023-02-11T03:08:38.443Z,102936.19
2023-02-11T03:11:06.543Z,102926.69
2023-02-11T03:13:35.688Z,102912.13
2023-02-11T03:16:11.576Z,102906.97
2023-02-11T03:18:42.315Z,102905.25
2023-02-11T03:21:11.182Z,102902.72
2023-02-11T03:23:44.599Z,102903.66
2023-02-11T03:26:21.926Z,102920.03
2023-02-11T03:28:56.304Z,102929.47
2023-02-11T03:31:37.506Z,102919.94
2023-02-11T03:34:12.711Z,102925.03
2023-02-11T03:36:48.353Z,102931.94
2023-02-11T03:39:21.217Z,102922.53
2023-02-11T03:41:49.890Z,102932.84
2023-02-11T03:44:17.424Z,102937.19
2023-02-11T03:46:50.221Z,102936.25
2023-02-11T03:49:20.397Z,102932.03
2023-02-11T03:51:50.022Z,102932.84
2023-02-11T03:54:21.367Z,102934.63
2023-02-11T03:56:57.902Z,102940.53
2023-02-11T03:59:24.989Z,102939.69
2023-02-11T04:01:52.165Z,102950.00
2023-02-11T04:04:19.754Z,102944.84
2023-02-11T04:06:46.343Z,102948.31
2023-02-11T04:09:13.090Z,102951.75
2023-02-11T04:11:39.950Z,102956.91
2023-02-11T04:14:06.741Z,102957.63
2023-02-11T04:16:33.485Z,102947.31
2023-02-11T04:19:01.633Z,102933.63
2023-02-11T04:21:28.167Z,102943.94
2023-02-11T04:23:54.801Z,102943.09
2023-02-11T04:26:21.643Z,102950.00
2023-02-11T04:28:50.463Z,102942.25
2023-02-11T04:31:17.503Z,102942.16
2023-02-11T04:33:44.306Z,102934.41
2023-02-11T04:36:10.861Z,102939.69
2023-02-11T04:38:37.490Z,102942.25
2023-02-11T04:41:04.503Z,102955.06
2023-02-11T04:43:31.135Z,102949.91
2023-02-11T04:45:58.919Z,102949.91
2023-02-11T04:48:26.294Z,102958.47
2023-02-11T04:50:53.001Z,102956.75
2023-02-11T04:53:19.609Z,102955.78
2023-02-11T04:55:49.862Z,102943.09
2023-02-11T04:58:19.291Z,102942.38
2023-02-11T05:00:46.479Z,102938.00
2023-02-11T05:03:15.049Z,102949.16
2023-02-11T05:05:43.180Z,102947.53
2023-02-11T05:08:11.134Z,102953.50
2023-02-11T05:10:38.634Z,102949.16
2023-02-11T05:13:05.414Z,102956.06
2023-02-11T05:15:32.114Z,102945.75
2023-02-11T05:17:58.781Z,102953.50
2023-02-11T05:20:25.593Z,102952.69
2023-02-11T05:22:52.663Z,102950.09
2023-02-11T05:25:20.933Z,102954.31
2023-02-11T05:27:47.627Z,102950.91
2023-02-11T05:30:14.591Z,102958.56
2023-02-11T05:32:41.289Z,102956.00
2023-02-11T05:35:09.463Z,102952.69
2023-02-11T05:37:36.426Z,102949.09
2023-02-11T05:40:03.698Z,102943.94
2023-02-11T05:42:30.525Z,102950.09
2023-02-11T05:44:57.331Z,102941.44
2023-02-11T05:47:24.244Z,102941.34
2023-02-11T05:49:53.748Z,102938.84
2023-02-11T05:52:21.765Z,102942.38
2023-02-11T05:54:48.961Z,102932.84
2023-02-11T05:57:16.647Z,102937.19
2023-02-11T05:59:43.258Z,102938.94
2023-02-11T06:02:10.254Z,102945.84
2023-02-11T06:04:37.833Z,102944.84
2023-02-11T06:07:04.594Z,102950.00
2023-02-11T06:09:31.333Z,102948.25
2023-02-11T06:11:58.109Z,102951.56
2023-02-11T06:14:24.824Z,102949.00
2023-02-11T06:16:51.420Z,102941.34
2023-02-11T06:19:18.112Z,102940.53
2023-02-11T06:21:44.784Z,102945.84
2023-02-11T06:24:12.366Z,102949.16
2023-02-11T06:26:39.023Z,102945.69
2023-02-11T06:29:05.732Z,102954.25
2023-02-11T06:31:32.379Z,102956.75
2023-02-11T06:33:59.510Z,102954.16
2023-02-11T06:36:26.423Z,102958.38
2023-02-11T06:38:53.301Z,102959.22
2023-02-11T06:41:20.529Z,102958.31
2023-02-11T06:43:48.076Z,102957.47
2023-02-11T06:46:16.372Z,102952.31
2023-02-11T06:48:44.881Z,102954.78
2023-02-11T06:51:13.470Z,102950.47
2023-02-11T06:53:45.137Z,102945.41
2023-02-11T06:56:16.461Z,102946.97
2023-02-11T06:58:43.619Z,102951.22
2023-02-11T07:01:12.894Z,102954.63
2023-02-11T07:03:43.227Z,102944.31
2023-02-11T07:06:13.959Z,102942.56
2023-02-11T07:08:42.570Z,102952.88
2023-02-11T07:11:11.734Z,102942.47
2023-02-11T07:13:38.575Z,102943.28
2023-02-11T07:16:07.827Z,102944.03
2023-02-11T07:18:35.322Z,102939.72
2023-02-11T07:21:11.320Z,102936.19
2023-02-11T07:23:39.745Z,102937.97
2023-02-11T07:26:15.150Z,102943.03
2023-02-11T07:28:42.076Z,102947.19
2023-02-11T07:31:19.995Z,102941.06
2023-02-11T07:33:46.830Z,102948.75
2023-02-11T07:36:15.617Z,102960.72
2023-02-11T07:38:42.972Z,102964.13
2023-02-11T07:41:11.959Z,102966.56
2023-02-11T07:43:40.114Z,102976.69
2023-02-11T07:46:09.516Z,102968.84
2023-02-11T07:48:36.445Z,102962.75
2023-02-11T07:51:10.410Z,102967.00
2023-02-11T07:53:37.124Z,102971.16
2023-02-11T07:56:05.532Z,102966.84
2023-02-11T07:58:32.663Z,102971.91
2023-02-11T08:01:08.467Z,102979.53
2023-02-11T08:03:37.202Z,102984.63
2023-02-11T08:06:06.498Z,102985.47
2023-02-11T08:08:33.126Z,102980.31
2023-02-11T08:11:16.339Z,102989.59
2023-02-11T08:13:43.437Z,102988.69
2023-02-11T08:16:18.103Z,102993.75
2023-02-11T08:18:44.946Z,102997.06
2023-02-11T08:21:11.987Z,102994.41
2023-02-11T08:23:40.071Z,102997.72
2023-02-11T08:26:15.844Z,102995.88
2023-02-11T08:28:44.834Z,102994.88
2023-02-11T08:31:18.095Z,102990.44
2023-02-11T08:33:45.476Z,102991.19
2023-02-11T08:36:21.665Z,102990.28
2023-02-11T08:38:48.754Z,103001.34
2023-02-11T08:41:16.831Z,103000.34
2023-02-11T08:43:44.537Z,103008.81
2023-02-11T08:46:16.806Z,103003.53
2023-02-11T08:48:44.271Z,103008.53
2023-02-11T08:51:17.394Z,103001.53
2023-02-11T08:53:44.425Z,103005.56
2023-02-11T08:56:13.515Z,103003.66
2023-02-11T08:58:40.841Z,103014.44
2023-02-11T09:01:17.211Z,103015.84
2023-02-11T09:03:44.468Z,103018.31
2023-02-11T09:06:12.568Z,103019.88
2023-02-11T09:08:41.357Z,103031.69
2023-02-11T09:11:09.525Z,103022.91
2023-02-11T09:13:36.884Z,103028.72
2023-02-11T09:16:05.619Z,103031.03
2023-02-11T09:18:32.674Z,103030.94
2023-02-11T09:21:07.788Z,103029.00
2023-02-11T09:23:35.561Z,103031.41
2023-02-11T09:26:10.700Z,103037.19
2023-02-11T09:28:37.645Z,103044.66
2023-02-11T09:31:09.133Z,103051.41
2023-02-11T09:33:36.602Z,103054.66
2023-02-11T09:36:06.237Z,103061.38
2023-02-11T09:38:33.647Z,103070.59
2023-02-11T09:41:04.094Z,103073.03
2023-02-11T09:43:45.375Z,103073.78
2023-02-11T09:46:17.506Z,103081.44
2023-02-11T09:48:48.294Z,103084.84
2023-02-11T09:51:33.278Z,103078.72
2023-02-11T09:54:08.816Z,103083.00
2023-02-11T09:56:35.539Z,103094.06
2023-02-11T09:59:02.266Z,103093.88
2023-02-11T10:01:50.640Z,103092.75
2023-02-11T10:04:20.271Z,103090.63
2023-02-11T10:06:54.172Z,103092.91
2023-02-11T10:09:31.860Z,103096.88
2023-02-11T10:12:26.026Z,103106.13
2023-02-11T10:15:14.220Z,103113.59
2023-02-11T10:17:57.009Z,103117.63
2023-02-11T10:20:26.966Z,103121.72
2023-02-11T10:22:55.891Z,103118.81
2023-02-11T10:25:27.273Z,103126.38
2023-02-11T10:27:58.117Z,103128.69
2023-02-11T10:30:38.962Z,103131.06
2023-02-11T10:33:27.273Z,103134.41
2023-02-11T10:35:54.196Z,103130.78
2023-02-11T10:38:21.059Z,103126.25
2023-02-11T10:40:47.748Z,103127.91
2023-02-11T10:43:17.245Z,103133.72
2023-02-11T10:45:48.704Z,103129.28
2023-02-11T10:48:45.838Z,103128.13
2023-02-11T10:51:23.009Z,103122.66
2023-02-11T10:54:14.550Z,103117.19
2023-02-11T10:56:47.643Z,103129.72
2023-02-11T10:59:40.524Z,103124.06
2023-02-11T11:02:21.767Z,103125.41
2023-02-11T11:04:49.114Z,103123.44
2023-02-11T11:07:18.424Z,103123.97
2023-02-11T11:09:55.647Z,103124.50
2023-02-11T11:12:27.606Z,103123.16
2023-02-11T11:15:01.316Z,103114.97
2023-02-11T11:17:29.193Z,103119.66
2023-02-11T11:20:25.091Z,103124.53
2023-02-11T11:23:07.525Z,103130.53
2023-02-11T11:25:45.986Z,103138.31
2023-02-11T11:28:26.965Z,103133.13
2023-02-11T11:30:56.000Z,103135.63
2023-02-11T11:33:33.033Z,103132.91
2023-02-11T11:36:01.568Z,103130.22
2023-02-11T11:38:30.308Z,103129.41
2023-02-11T11:41:18.776Z,103130.22
2023-02-11T11:44:05.276Z,103135.19
2023-02-11T11:46:44.448Z,103134.06
2023-02-11T11:49:13.935Z,103140.69
2023-02-11T11:51:45.533Z,103134.47
2023-02-11T11:54:15.554Z,103131.03
2023-02-11T11:56:59.958Z,103136.03
2023-02-11T11:59:27.989Z,103129.69
2023-02-11T12:02:13.076Z,103136.44
2023-02-11T12:04:49.136Z,103128.47
2023-02-11T12:07:54.473Z,103133.38
2023-02-11T12:10:41.895Z,103132.22
2023-02-11T12:13:26.703Z,103134.47
2023-02-11T12:16:11.394Z,103127.09
2023-02-11T12:18:53.363Z,103106.53
2023-02-11T12:21:35.090Z,103110.56
2023-02-11T12:24:29.800Z,103112.84
2023-02-11T12:27:16.098Z,103115.81
2023-02-11T12:30:03.682Z,103110.09
2023-02-11T12:32:39.728Z,103119.56
2023-02-11T12:35:25.752Z,103122.53
2023-02-11T12:38:18.942Z,103117.84
2023-02-11T12:41:00.737Z,103120.91
2023-02-11T12:43:38.848Z,103114.69
2023-02-11T12:46:31.188Z,103112.59
2023-02-11T12:49:28.528Z,103112.13
2023-02-11T12:52:08.153Z,103118.78
2023-02-11T12:54:46.447Z,103111.91
2023-02-11T12:57:26.060Z,103112.13
2023-02-11T12:59:56.727Z,103116.59
2023-02-11T13:02:29.639Z,103127.97
2023-02-11T13:05:14.468Z,103129.13
2023-02-11T13:07:45.080Z,103130.03
2023-02-11T13:10:14.436Z,103128.63
2023-02-11T13:13:03.961Z,103118.13
2023-02-11T13:15:31.453Z,103112.59
2023-02-11T13:18:17.357Z,103103.03
2023-02-11T13:20:59.353Z,103097.00
2023-02-11T13:24:23.813Z,103100.09
2023-02-11T13:27:30.551Z,103103.28
2023-02-11T13:30:04.381Z,103101.66
2023-02-11T13:32:55.746Z,103105.69
2023-02-11T13:35:37.790Z,103111.59
2023-02-11T13:38:25.731Z,103114.19
2023-02-11T13:41:04.599Z,103107.09
2023-02-11T13:43:34.020Z,103108.66
2023-02-11T13:46:11.077Z,103109.16
2023-02-11T13:48:45.372Z,103113.84
2023-02-11T13:51:16.409Z,103102.63
2023-02-11T13:53:50.325Z,103110.81
2023-02-11T13:56:33.532Z,103113.16
2023-02-11T13:59:24.554Z,103110.94
2023-02-11T14:02:13.048Z,103115.22
2023-02-11T14:05:21.276Z,103118.03
2023-02-11T14:08:28.675Z,103115.91
2023-02-11T14:11:25.244Z,103109.56
2023-02-11T14:13:51.872Z,103104.84
2023-02-11T14:16:36.767Z,103110.16
2023-02-11T14:19:06.399Z,103106.03
2023-02-11T14:21:42.530Z,103119.13
2023-02-11T14:24:13.057Z,103125.88
2023-02-11T14:26:52.872Z,103117.34
2023-02-11T14:29:38.789Z,103125.75
2023-02-11T14:32:20.523Z,103123.38
2023-02-11T14:34:47.130Z,103124.22
2023-02-11T14:37:19.805Z,103129.53
2023-02-11T14:40:14.030Z,103133.19
2023-02-11T14:42:41.209Z,103143.66
2023-02-11T14:45:11.475Z,103142.13
2023-02-11T14:47:46.559Z,103136.00
2023-02-11T14:50:24.617Z,103130.94
2023-02-11T14:52:52.218Z,103132.69
2023-02-11T14:55:33.976Z,103131.84
2023-02-11T14:58:12.582Z,103133.88
2023-02-11T15:00:52.137Z,103130.56
2023-02-11T15:03:40.147Z,103127.84
2023-02-11T15:06:47.651Z,103127.00
2023-02-11T15:09:25.608Z,103125.44
2023-02-11T15:11:53.526Z,103124.59
2023-02-11T15:14:27.881Z,103127.22
2023-02-11T15:16:58.535Z,103134.28
2023-02-11T15:19:37.865Z,103134.19
2023-02-11T15:22:06.999Z,103135.97
2023-02-11T15:24:35.538Z,103139.41
2023-02-11T15:27:16.228Z,103133.56
2023-02-11T15:29:45.637Z,103136.38
2023-02-11T15:32:17.138Z,103133.06
2023-02-11T15:34:45.926Z,103139.22
2023-02-11T15:37:30.690Z,103135.28
2023-02-11T15:40:11.067Z,103141.78
2023-02-11T15:42:50.899Z,103141.28
2023-02-11T15:45:28.701Z,103147.38
2023-02-11T15:48:10.041Z,103153.63
2023-02-11T15:50:40.724Z,103153.13
2023-02-11T15:53:23.498Z,103150.97
2023-02-11T15:55:52.948Z,103158.97
2023-02-11T15:58:21.792Z,103158.16
2023-02-11T16:00:51.304Z,103154.94
2023-02-11T16:03:28.832Z,103156.81
2023-02-11T16:05:56.610Z,103154.44
2023-02-11T16:08:27.002Z,103168.25
2023-02-11T16:11:08.948Z,103166.69
2023-02-11T16:13:47.427Z,103173.88
2023-02-11T16:16:40.517Z,103176.78
2023-02-11T16:19:18.773Z,103170.97
2023-02-11T16:21:46.027Z,103171.09
2023-02-11T16:24:33.066Z,103176.59
2023-02-11T16:27:06.891Z,103174.00
2023-02-11T16:29:37.027Z,103178.56
2023-02-11T16:32:10.566Z,103189.16
2023-02-11T16:34:37.423Z,103191.03
2023-02-11T16:37:05.607Z,103197.78
2023-02-11T16:39:33.604Z,103199.75
2023-02-11T16:42:01.438Z,103204.94
2023-02-11T16:44:29.069Z,103200.19
2023-02-11T16:46:59.706Z,103215.75
2023-02-11T16:49:29.959Z,103218.34
2023-02-11T16:52:01.314Z,103221.97
2023-02-11T16:54:29.293Z,103233.38
2023-02-11T16:56:56.840Z,103234.22
2023-02-11T16:59:23.914Z,103233.50
2023-02-11T17:01:53.699Z,103231.09
2023-02-11T17:04:25.781Z,103229.50
2023-02-11T17:06:55.426Z,103240.78
2023-02-11T17:09:28.983Z,103242.66
2023-02-11T17:11:58.192Z,103240.19
2023-02-11T17:14:24.928Z,103247.13
2023-02-11T17:16:51.733Z,103248.06
2023-02-11T17:19:23.596Z,103238.63
2023-02-11T17:21:52.431Z,103243.81
2023-02-11T17:24:20.912Z,103242.13
2023-02-11T17:26:48.964Z,103240.50
2023-02-11T17:29:19.665Z,103238.09
2023-02-11T17:31:46.541Z,103240.78
2023-02-11T17:34:13.780Z,103244.53
2023-02-11T17:36:41.516Z,103245.44
2023-02-11T17:39:08.620Z,103249.81
2023-02-11T17:41:38.977Z,103245.66
2023-02-11T17:44:07.910Z,103243.28
2023-02-11T17:46:35.848Z,103244.38
2023-02-11T17:49:03.008Z,103248.13
2023-02-11T17:51:38.248Z,103252.47
2023-02-11T17:54:08.785Z,103258.59
2023-02-11T17:56:36.846Z,103254.25
2023-02-11T17:59:04.967Z,103259.44
2023-02-11T18:01:33.500Z,103256.91
2023-02-11T18:04:01.083Z,103254.44
2023-02-11T18:06:29.279Z,103247.59
2023-02-11T18:08:59.714Z,103260.66
2023-02-11T18:11:27.914Z,103257.34
2023-02-11T18:13:55.802Z,103262.53
2023-02-11T18:16:25.217Z,103268.63
2023-02-11T18:18:51.926Z,103266.13
2023-02-11T18:21:21.421Z,103262.72
2023-02-11T18:23:48.841Z,103269.66
2023-02-11T18:26:18.562Z,103265.47
2023-02-11T18:28:46.254Z,103268.19
2023-02-11T18:31:14.239Z,103268.31
2023-02-11T18:33:42.390Z,103276.91
2023-02-11T18:36:11.873Z,103282.09
2023-02-11T18:38:39.341Z,103290.69
2023-02-11T18:41:07.557Z,103294.22
2023-02-11T18:43:34.800Z,103296.88
2023-02-11T18:46:03.311Z,103290.91
2023-02-11T18:48:30.496Z,103296.88
2023-02-11T18:50:57.250Z,103296.81
2023-02-11T18:53:25.047Z,103301.03
2023-02-11T18:55:54.037Z,103305.31
2023-02-11T18:58:24.030Z,103313.94
2023-02-11T19:00:51.143Z,103324.19
2023-02-11T19:03:18.019Z,103322.63
2023-02-11T19:05:49.177Z,103319.91
2023-02-11T19:08:17.163Z,103323.47
2023-02-11T19:10:46.624Z,103330.28
2023-02-11T19:13:14.550Z,103340.75
2023-02-11T19:15:47.252Z,103339.72
2023-02-11T19:18:15.462Z,103341.50
2023-02-11T19:20:43.698Z,103340.66
2023-02-11T19:23:10.969Z,103348.63
2023-02-11T19:25:45.478Z,103340.88
2023-02-11T19:28:13.374Z,103350.28
2023-02-11T19:30:40.954Z,103352.88
2023-02-11T19:33:10.115Z,103359.00
2023-02-11T19:35:37.048Z,103368.66
2023-02-11T19:38:04.918Z,103373.81
2023-02-11T19:40:32.013Z,103371.22
2023-02-11T19:42:58.611Z,103378.06
2023-02-11T19:45:26.999Z,103377.44
2023-02-11T19:47:56.831Z,103383.66
2023-02-11T19:50:24.029Z,103385.41
2023-02-11T19:52:50.913Z,103383.81
2023-02-11T19:55:17.771Z,103383.94
2023-02-11T19:57:44.932Z,103387.53
2023-02-11T20:00:12.136Z,103387.66
2023-02-11T20:02:40.385Z,103395.22
2023-02-11T20:05:07.743Z,103385.78
2023-02-11T20:07:35.103Z,103391.88
2023-02-11T20:10:01.887Z,103390.31
2023-02-11T20:12:28.951Z,103399.75
2023-02-11T20:14:55.685Z,103395.59
2023-02-11T20:17:22.454Z,103393.13
2023-02-11T20:19:49.963Z,103394.88
2023-02-11T20:22:16.715Z,103399.19
2023-02-11T20:24:43.505Z,103401.91
2023-02-11T20:27:11.609Z,103400.03
2023-02-11T20:29:39.957Z,103413.91
2023-02-11T20:32:07.525Z,103411.31
2023-02-11T20:37:25.410Z,103414.00
2023-02-11T20:39:52.132Z,103411.44
2023-02-11T20:42:18.949Z,103413.28
2023-02-11T20:44:45.724Z,103416.78
2023-02-11T20:47:12.802Z,103412.53
2023-02-11T20:49:39.676Z,103412.63
2023-02-11T20:52:08.230Z,103410.97
2023-02-11T20:54:34.987Z,103411.16
2023-02-11T20:57:02.362Z,103412.91
2023-02-11T20:59:29.328Z,103421.50
2023-02-11T21:01:56.982Z,103422.41
2023-02-11T21:04:27.787Z,103424.22
2023-02-11T21:06:57.969Z,103423.38
2023-02-11T21:09:27.179Z,103416.50
2023-02-11T21:11:54.862Z,103413.09
2023-02-11T21:14:23.192Z,103416.50
2023-02-11T21:16:50.246Z,103417.34
2023-02-11T21:19:18.236Z,103417.25
2023-02-11T21:21:45.616Z,103419.03
2023-02-11T21:24:12.689Z,103419.03
2023-02-11T21:26:39.791Z,103426.69
2023-02-11T21:29:08.206Z,103425.84
2023-02-11T21:31:36.683Z,103419.75
2023-02-11T21:34:04.258Z,103426.59
2023-02-11T21:36:31.090Z,103426.69
2023-02-11T21:38:58.831Z,103420.03
2023-02-11T21:41:27.514Z,103418.38
2023-02-11T21:43:54.976Z,103421.91
2023-02-11T21:46:22.171Z,103421.91
2023-02-11T21:48:49.784Z,103418.56
2023-02-11T21:51:21.952Z,103422.34
2023-02-11T21:54:01.289Z,103432.69
2023-02-11T21:56:29.693Z,103429.28
2023-02-11T21:58:57.781Z,103436.19
2023-02-11T22:01:31.037Z,103439.63
2023-02-11T22:03:58.202Z,103436.13
2023-02-11T22:06:33.324Z,103434.44
2023-02-11T22:09:04.856Z,103444.06
2023-02-11T22:11:31.706Z,103449.16
2023-02-11T22:13:59.302Z,103448.34
2023-02-11T22:16:30.382Z,103448.34
2023-02-11T22:18:58.725Z,103449.16
2023-02-11T22:21:25.742Z,103448.34
2023-02-11T22:23:54.681Z,103446.78
2023-02-11T22:26:24.028Z,103446.66
2023-02-11T22:28:52.102Z,103451.00
2023-02-11T22:31:22.062Z,103457.13
2023-02-11T22:33:48.985Z,103461.38
2023-02-11T22:36:18.286Z,103464.22
2023-02-11T22:38:44.951Z,103467.75
2023-02-11T22:41:13.364Z,103467.75
2023-02-11T22:43:42.185Z,103473.75
2023-02-11T22:46:11.156Z,103471.25
2023-02-11T22:48:37.931Z,103477.28
2023-02-11T22:51:10.698Z,103477.44
2023-02-11T22:53:37.696Z,103480.03
2023-02-11T22:56:07.233Z,103472.38
2023-02-11T22:58:35.399Z,103474.13
2023-02-11T23:01:02.287Z,103480.19
2023-02-11T23:03:31.811Z,103478.56
2023-02-11T23:05:59.598Z,103486.41
2023-02-11T23:08:27.749Z,103496.84
2023-02-11T23:10:54.675Z,103494.25
2023-02-11T23:13:21.650Z,103488.25
2023-02-11T23:15:48.357Z,103493.50
2023-02-11T23:18:15.511Z,103500.44
2023-02-11T23:20:43.767Z,103508.16
2023-02-11T23:23:10.390Z,103507.31
2023-02-11T23:25:45.117Z,103509.91
2023-02-11T23:28:12.467Z,103512.47
2023-02-11T23:30:39.502Z,103507.31
2023-02-11T23:33:06.472Z,103503.97
2023-02-11T23:35:33.352Z,103506.63
2023-02-11T23:38:00.126Z,103500.72
2023-02-11T23:40:27.904Z,103500.91
2023-02-11T23:42:54.676Z,103504.50
2023-02-11T23:45:21.407Z,103508.16
2023-02-11T23:47:48.343Z,103506.41
2023-02-11T23:50:15.030Z,103497.91
2023-02-11T23:52:41.862Z,103500.50
2023-02-11T23:55:08.772Z,103506.88
2023-02-11T23:57:35.531Z,103507.78
